createdAt,value
2023-04-07T00:01:55.364Z,23.65
2023-04-07T00:04:22.436Z,25.83
2023-04-07T00:06:49.490Z,25.58
2023-04-07T00:09:16.452Z,19.83
2023-04-07T00:11:43.378Z,31.00
2023-04-07T00:14:10.360Z,22.00
2023-04-07T00:16:37.265Z,22.05
2023-04-07T00:19:04.147Z,22.80
2023-04-07T00:21:31.231Z,26.90
2023-04-07T00:23:59.216Z,32.63
2023-04-07T00:26:31.408Z,23.60
2023-04-07T00:28:59.613Z,28.63
2023-04-07T00:31:26.883Z,24.27
2023-04-07T00:33:54.291Z,26.95
2023-04-07T00:36:21.735Z,31.70
2023-04-07T00:38:48.627Z,29.25
2023-04-07T00:41:15.856Z,27.50
2023-04-07T00:43:42.775Z,30.85
2023-04-07T00:46:09.761Z,40.55
2023-04-07T00:48:37.958Z,27.33
2023-04-07T00:51:07.608Z,37.17
2023-04-07T00:53:34.724Z,48.70
2023-04-07T00:56:01.893Z,46.10
2023-04-07T00:58:28.830Z,42.50
2023-04-07T01:01:12.087Z,31.80
2023-04-07T01:04:02.394Z,29.48
2023-04-07T01:06:35.457Z,36.92
2023-04-07T01:09:24.525Z,35.03
2023-04-07T01:12:22.192Z,25.50
2023-04-07T01:14:58.611Z,66.18
2023-04-07T01:17:28.242Z,28.63
2023-04-07T01:20:08.011Z,36.55
2023-04-07T01:22:47.645Z,41.25
2023-04-07T01:26:10.669Z,45.55
2023-04-07T01:29:26.877Z,37.88
2023-04-07T01:31:59.912Z,39.33
2023-04-07T01:34:29.948Z,38.72
2023-04-07T01:36:59.221Z,32.20
2023-04-07T01:39:28.429Z,33.33
2023-04-07T01:41:57.913Z,36.50
2023-04-07T01:44:27.063Z,35.67
2023-04-07T01:46:56.567Z,35.97
2023-04-07T01:49:25.902Z,35.25
2023-04-07T01:51:54.700Z,33.97
2023-04-07T01:54:23.051Z,34.65
2023-04-07T01:56:49.981Z,35.20
2023-04-07T01:59:17.175Z,31.38
2023-04-07T02:01:44.274Z,31.02
2023-04-07T02:04:51.551Z,35.65
2023-04-07T02:07:40.375Z,33.97
2023-04-07T02:10:13.456Z,35.38
2023-04-07T02:12:44.159Z,34.42
2023-04-07T02:15:12.792Z,33.60
2023-04-07T02:17:44.771Z,41.38
2023-04-07T02:20:13.590Z,30.17
2023-04-07T02:22:41.340Z,37.50
2023-04-07T02:25:30.830Z,40.35
2023-04-07T02:27:59.803Z,38.63
2023-04-07T02:30:28.113Z,39.30
2023-04-07T02:32:55.439Z,40.63
2023-04-07T02:35:22.738Z,39.25
2023-04-07T02:37:50.625Z,50.40
2023-04-07T02:40:17.712Z,40.95
2023-04-07T02:42:44.840Z,39.78
2023-04-07T02:45:12.091Z,45.28
2023-04-07T02:47:40.004Z,42.40
2023-04-07T02:50:07.739Z,40.15
2023-04-07T02:52:35.004Z,43.22
2023-04-07T02:55:01.962Z,50.95
2023-04-07T02:57:28.901Z,39.53
2023-04-07T02:59:58.037Z,48.78
2023-04-07T03:02:25.437Z,42.30
2023-04-07T03:04:53.316Z,44.08
2023-04-07T03:07:20.509Z,50.10
2023-04-07T03:09:47.460Z,39.70
2023-04-07T03:12:14.470Z,53.78
2023-04-07T03:14:41.397Z,41.42
2023-04-07T03:17:08.576Z,50.28
2023-04-07T03:19:35.483Z,50.15
2023-04-07T03:22:02.467Z,48.50
2023-04-07T03:24:29.440Z,44.90
2023-04-07T03:26:56.347Z,52.30
2023-04-07T03:29:23.301Z,69.93
2023-04-07T03:31:50.310Z,41.20
2023-04-07T03:34:17.212Z,36.58
2023-04-07T03:36:44.148Z,37.60
2023-04-07T03:39:11.078Z,42.58
2023-04-07T03:41:38.031Z,42.75
2023-04-07T03:44:05.297Z,39.78
2023-04-07T03:46:32.240Z,40.53
2023-04-07T03:48:59.109Z,40.75
2023-04-07T03:51:27.840Z,42.72
2023-04-07T03:53:54.939Z,44.72
2023-04-07T03:56:22.510Z,43.63
2023-04-07T03:58:49.646Z,42.53
2023-04-07T04:01:17.130Z,43.85
2023-04-07T04:03:44.240Z,42.70
2023-04-07T04:06:11.374Z,45.58
2023-04-07T04:08:38.267Z,40.53
2023-04-07T04:11:05.416Z,43.88
2023-04-07T04:13:32.381Z,46.72
2023-04-07T04:15:59.399Z,52.67
2023-04-07T04:18:26.315Z,44.92
2023-04-07T04:20:53.205Z,44.78
2023-04-07T04:23:20.150Z,46.97
2023-04-07T04:25:47.108Z,33.03
2023-04-07T04:28:14.039Z,50.53
2023-04-07T04:30:41.175Z,40.08
2023-04-07T04:33:08.171Z,39.90
2023-04-07T04:35:35.282Z,39.10
2023-04-07T04:38:02.145Z,35.83
2023-04-07T04:40:29.023Z,41.42
2023-04-07T04:42:56.181Z,38.70
2023-04-07T04:45:23.110Z,37.85
2023-04-07T04:47:50.013Z,45.88
2023-04-07T04:50:17.060Z,40.45
2023-04-07T04:52:46.893Z,40.67
2023-04-07T04:55:14.575Z,44.05
2023-04-07T04:57:44.243Z,36.88
2023-04-07T05:00:11.863Z,33.38
2023-04-07T05:02:40.073Z,36.92
2023-04-07T05:05:08.945Z,42.85
2023-04-07T05:07:35.994Z,44.40
2023-04-07T05:10:03.005Z,39.90
2023-04-07T05:12:29.858Z,40.78
2023-04-07T05:14:56.714Z,44.45
2023-04-07T05:17:23.721Z,40.00
2023-04-07T05:19:50.962Z,44.15
2023-04-07T05:22:21.490Z,33.88
2023-04-07T05:24:48.447Z,34.20
2023-04-07T05:27:15.458Z,29.95
2023-04-07T05:29:42.327Z,33.97
2023-04-07T05:32:09.323Z,38.17
2023-04-07T05:34:36.611Z,33.42
2023-04-07T05:37:03.558Z,33.75
2023-04-07T05:39:30.776Z,36.35
2023-04-07T05:41:58.142Z,38.22
2023-04-07T05:44:25.019Z,45.30
2023-04-07T05:46:51.875Z,39.63
2023-04-07T05:49:20.036Z,48.08
2023-04-07T05:51:49.175Z,43.13
2023-04-07T05:54:16.640Z,55.05
2023-04-07T05:56:43.553Z,41.72
2023-04-07T05:59:10.659Z,45.95
2023-04-07T06:01:37.592Z,48.47
2023-04-07T06:04:04.619Z,58.30
2023-04-07T06:06:31.639Z,55.38
2023-04-07T06:08:58.584Z,46.60
2023-04-07T06:11:27.586Z,37.83
2023-04-07T06:13:54.513Z,44.95
2023-04-07T06:16:21.455Z,78.50
2023-04-07T06:18:48.393Z,57.60
2023-04-07T06:21:15.765Z,55.45
2023-04-07T06:23:42.666Z,65.05
2023-04-07T06:26:13.139Z,42.88
2023-04-07T06:28:40.519Z,84.25
2023-04-07T06:31:09.253Z,39.95
2023-04-07T06:33:36.280Z,55.15
2023-04-07T06:36:03.286Z,45.38
2023-04-07T06:38:30.428Z,108.78
2023-04-07T06:40:57.392Z,44.05
2023-04-07T06:43:24.321Z,41.20
2023-04-07T06:45:51.327Z,66.18
2023-04-07T06:48:18.296Z,57.10
2023-04-07T06:50:50.545Z,41.90
2023-04-07T06:53:17.617Z,49.88
2023-04-07T06:55:44.594Z,58.83
2023-04-07T06:58:11.731Z,40.35
2023-04-07T07:00:38.731Z,62.85
2023-04-07T07:03:05.928Z,40.67
2023-04-07T07:05:34.223Z,43.67
2023-04-07T07:08:01.155Z,50.08
2023-04-07T07:10:28.342Z,44.28
2023-04-07T07:12:55.225Z,39.35
2023-04-07T07:15:22.444Z,54.90
2023-04-07T07:17:49.427Z,43.33
2023-04-07T07:20:16.953Z,44.50
2023-04-07T07:22:43.829Z,75.50
2023-04-07T07:25:11.009Z,46.70
2023-04-07T07:27:37.903Z,41.92
2023-04-07T07:30:06.033Z,44.45
2023-04-07T07:32:33.096Z,44.63
2023-04-07T07:35:00.029Z,47.63
2023-04-07T07:37:28.022Z,40.38
2023-04-07T07:39:56.214Z,47.83
2023-04-07T07:42:23.127Z,49.17
2023-04-07T07:44:50.062Z,43.47
2023-04-07T07:47:17.160Z,55.00
2023-04-07T07:49:44.118Z,48.42
2023-04-07T07:52:11.197Z,48.20
2023-04-07T07:54:38.085Z,50.28
2023-04-07T07:57:06.131Z,68.25
2023-04-07T07:59:33.801Z,39.13
2023-04-07T08:02:01.013Z,42.95
2023-04-07T08:04:28.024Z,49.47
2023-04-07T08:06:55.150Z,56.83
2023-04-07T08:09:22.380Z,42.20
2023-04-07T08:11:49.527Z,41.55
2023-04-07T08:14:17.222Z,48.90
2023-04-07T08:16:44.989Z,43.13
2023-04-07T08:19:13.687Z,56.78
2023-04-07T08:21:40.698Z,79.57
2023-04-07T08:24:10.063Z,60.72
2023-04-07T08:26:37.096Z,56.08
2023-04-07T08:29:03.987Z,58.65
2023-04-07T08:31:31.007Z,53.15
2023-04-07T08:33:58.888Z,47.78
2023-04-07T08:36:28.022Z,58.50
2023-04-07T08:38:55.221Z,39.78
2023-04-07T08:41:33.124Z,40.28
2023-04-07T08:44:02.842Z,44.67
2023-04-07T08:46:31.042Z,39.15
2023-04-07T08:48:58.388Z,40.70
2023-04-07T08:51:32.278Z,42.30
2023-04-07T08:54:14.756Z,41.45
2023-04-07T08:56:43.268Z,41.70
2023-04-07T08:59:18.246Z,36.25
2023-04-07T09:01:47.368Z,37.10
2023-04-07T09:04:14.934Z,35.30
2023-04-07T09:06:41.946Z,44.05
2023-04-07T09:09:09.303Z,41.65
2023-04-07T09:11:39.984Z,41.97
2023-04-07T09:14:07.630Z,42.38
2023-04-07T09:16:35.535Z,41.83
2023-04-07T09:19:02.777Z,45.42
2023-04-07T09:21:52.123Z,50.50
2023-04-07T09:24:29.112Z,43.85
2023-04-07T09:27:17.849Z,44.65
2023-04-07T09:29:47.569Z,44.38
2023-04-07T09:32:41.552Z,42.78
2023-04-07T09:35:09.519Z,37.83
2023-04-07T09:37:37.325Z,36.50
2023-04-07T09:40:04.992Z,44.75
2023-04-07T09:42:36.012Z,40.95
2023-04-07T09:45:03.712Z,40.63
2023-04-07T09:47:32.981Z,46.35
2023-04-07T09:50:06.533Z,45.05
2023-04-07T09:52:54.023Z,46.30
2023-04-07T09:55:24.377Z,48.92
2023-04-07T09:57:52.404Z,51.42
2023-04-07T10:00:19.456Z,48.95
2023-04-07T10:02:48.024Z,45.22
2023-04-07T10:05:15.796Z,47.33
2023-04-07T10:07:44.252Z,47.60
2023-04-07T10:10:11.824Z,51.22
2023-04-07T10:12:39.373Z,41.63
2023-04-07T10:15:07.483Z,40.05
2023-04-07T10:17:37.678Z,40.47
2023-04-07T10:20:09.639Z,39.92
2023-04-07T10:22:38.948Z,43.00
2023-04-07T10:25:13.924Z,42.33
2023-04-07T10:27:51.700Z,79.47
2023-04-07T10:30:26.101Z,40.90
2023-04-07T10:32:54.774Z,41.67
2023-04-07T10:35:23.090Z,45.83
2023-04-07T10:38:08.612Z,40.97
2023-04-07T10:40:37.698Z,41.78
2023-04-07T10:43:09.605Z,41.90
2023-04-07T10:45:49.045Z,39.70
2023-04-07T10:48:20.687Z,40.28
2023-04-07T10:51:11.240Z,46.55
2023-04-07T10:53:38.449Z,46.00
2023-04-07T10:56:05.888Z,40.90
2023-04-07T10:58:33.895Z,40.35
2023-04-07T11:01:04.087Z,39.15
2023-04-07T11:03:40.899Z,38.13
2023-04-07T11:06:14.826Z,36.55
2023-04-07T11:08:49.545Z,35.53
2023-04-07T11:11:35.780Z,35.42
2023-04-07T11:14:02.674Z,36.00
2023-04-07T11:16:42.404Z,36.92
2023-04-07T11:19:09.494Z,35.55
2023-04-07T11:21:36.808Z,37.58
2023-04-07T11:24:04.174Z,37.42
2023-04-07T11:26:38.108Z,41.47
2023-04-07T11:29:05.324Z,34.22
2023-04-07T11:31:32.634Z,32.75
2023-04-07T11:34:03.532Z,32.90
2023-04-07T11:36:41.672Z,29.98
2023-04-07T11:39:22.196Z,32.35
2023-04-07T11:41:51.312Z,34.22
2023-04-07T11:44:18.433Z,33.03
2023-04-07T11:47:00.393Z,34.70
2023-04-07T11:49:28.600Z,34.30
2023-04-07T11:52:13.993Z,32.75
2023-04-07T11:54:41.319Z,32.20
2023-04-07T11:57:14.432Z,35.72
2023-04-07T11:59:42.033Z,35.83
2023-04-07T12:02:09.614Z,30.73
2023-04-07T12:04:40.198Z,29.33
2023-04-07T12:07:10.893Z,30.50
2023-04-07T12:09:38.920Z,30.73
2023-04-07T12:12:10.388Z,28.58
2023-04-07T12:14:37.595Z,28.75
2023-04-07T12:17:04.715Z,29.67
2023-04-07T12:19:34.887Z,24.90
2023-04-07T12:22:01.817Z,26.70
2023-04-07T12:24:28.682Z,38.10
2023-04-07T12:26:56.193Z,24.13
2023-04-07T12:29:23.166Z,28.98
2023-04-07T12:31:51.305Z,27.33
2023-04-07T12:34:20.914Z,21.15
2023-04-07T12:36:48.375Z,23.77
2023-04-07T12:39:16.768Z,22.15
2023-04-07T12:41:45.717Z,24.65
2023-04-07T12:44:12.691Z,23.95
2023-04-07T12:46:39.639Z,24.35
2023-04-07T12:49:06.645Z,31.45
2023-04-07T12:51:33.707Z,27.92
2023-04-07T12:54:01.523Z,28.90
2023-04-07T12:56:28.769Z,34.95
2023-04-07T12:58:55.695Z,25.35
2023-04-07T13:01:22.787Z,28.35
2023-04-07T13:03:49.950Z,30.42
2023-04-07T13:06:17.636Z,32.08
2023-04-07T13:08:44.587Z,23.83
2023-04-07T13:11:11.670Z,23.23
2023-04-07T13:13:38.570Z,22.77
2023-04-07T13:16:05.715Z,18.27
2023-04-07T13:18:32.622Z,26.05
2023-04-07T13:21:33.782Z,37.33
2023-04-07T13:23:46.597Z,23.60
2023-04-07T13:26:13.588Z,20.67
2023-04-07T13:28:41.405Z,23.23
2023-04-07T13:31:08.459Z,20.92
2023-04-07T13:33:35.468Z,25.17
2023-04-07T13:36:02.468Z,24.60
2023-04-07T13:38:29.374Z,19.20
2023-04-07T13:40:56.292Z,23.58
2023-04-07T13:43:23.257Z,24.33
2023-04-07T13:45:50.727Z,18.00
2023-04-07T13:48:17.754Z,21.92
2023-04-07T13:50:44.660Z,19.75
2023-04-07T13:53:11.557Z,24.13
2023-04-07T13:55:39.457Z,21.75
2023-04-07T13:58:06.502Z,26.25
2023-04-07T14:00:35.762Z,20.85
2023-04-07T14:03:02.864Z,17.95
2023-04-07T14:05:30.034Z,21.42
2023-04-07T14:07:56.958Z,25.17
2023-04-07T14:10:23.930Z,20.17
2023-04-07T14:12:50.842Z,20.23
2023-04-07T14:15:18.465Z,22.75
2023-04-07T14:17:45.491Z,63.78
2023-04-07T14:20:12.509Z,35.33
2023-04-07T14:22:39.382Z,30.45
2023-04-07T14:25:07.030Z,24.58
2023-04-07T14:27:33.994Z,18.27
2023-04-07T14:30:01.253Z,22.52
2023-04-07T14:32:32.901Z,35.95
2023-04-07T14:34:59.852Z,20.88
2023-04-07T14:37:28.640Z,20.20
2023-04-07T14:42:26.141Z,20.92
2023-04-07T14:44:53.208Z,21.15
2023-04-07T14:47:20.275Z,20.60
2023-04-07T14:49:47.584Z,23.17
2023-04-07T14:52:14.648Z,22.08
2023-04-07T14:54:41.604Z,24.60
2023-04-07T14:57:08.603Z,24.00
2023-04-07T14:59:35.535Z,25.50
2023-04-07T15:02:02.595Z,20.30
2023-04-07T15:04:29.697Z,23.88
2023-04-07T15:06:56.677Z,28.85
2023-04-07T15:09:23.567Z,36.92
2023-04-07T15:11:50.689Z,26.20
2023-04-07T15:14:17.564Z,18.98
2023-04-07T15:16:44.527Z,22.70
2023-04-07T15:19:11.437Z,31.05
2023-04-07T15:21:38.319Z,25.05
2023-04-07T15:24:05.349Z,26.10
2023-04-07T15:26:32.250Z,22.70
2023-04-07T15:28:59.186Z,25.00
2023-04-07T15:31:27.919Z,28.98
2023-04-07T15:33:54.886Z,23.40
2023-04-07T15:36:21.749Z,26.92
2023-04-07T15:38:48.707Z,26.15
2023-04-07T15:41:16.930Z,23.30
2023-04-07T15:43:43.944Z,23.27
2023-04-07T15:46:11.056Z,28.38
2023-04-07T15:48:37.944Z,27.00
2023-04-07T15:51:05.006Z,27.52
2023-04-07T15:53:31.953Z,29.55
2023-04-07T15:55:58.914Z,33.28
2023-04-07T15:58:25.883Z,24.17
2023-04-07T16:00:53.048Z,25.90
2023-04-07T16:03:20.309Z,26.00
2023-04-07T16:05:47.580Z,27.55
2023-04-07T16:08:14.578Z,25.02
2023-04-07T16:10:41.625Z,25.20
2023-04-07T16:13:09.151Z,25.45
2023-04-07T16:15:40.564Z,26.60
2023-04-07T16:18:11.502Z,26.25
2023-04-07T16:20:38.650Z,29.83
2023-04-07T16:23:05.643Z,23.50
2023-04-07T16:25:32.597Z,28.70
2023-04-07T16:27:59.539Z,28.48
2023-04-07T16:30:26.570Z,27.75
2023-04-07T16:32:53.508Z,28.35
2023-04-07T16:35:20.523Z,24.52
2023-04-07T16:37:47.636Z,32.20
2023-04-07T16:40:14.613Z,31.17
2023-04-07T16:42:41.517Z,27.52
2023-04-07T16:45:08.944Z,30.00
2023-04-07T16:47:37.523Z,27.73
2023-04-07T16:50:05.293Z,29.92
2023-04-07T16:52:32.505Z,28.80
2023-04-07T16:55:00.976Z,31.85
2023-04-07T16:57:28.201Z,32.97
2023-04-07T16:59:55.221Z,31.73
2023-04-07T17:02:22.470Z,34.67
2023-04-07T17:04:49.786Z,30.48
2023-04-07T17:07:16.819Z,34.28
2023-04-07T17:09:43.679Z,35.15
2023-04-07T17:12:10.672Z,35.83
2023-04-07T17:14:37.610Z,34.88
2023-04-07T17:17:04.553Z,32.03
2023-04-07T17:19:31.500Z,29.92
2023-04-07T17:21:58.358Z,31.48
2023-04-07T17:24:25.308Z,35.35
2023-04-07T17:26:52.198Z,37.40
2023-04-07T17:29:20.964Z,32.05
2023-04-07T17:31:49.792Z,33.15
2023-04-07T17:34:17.164Z,32.47
2023-04-07T17:36:44.127Z,35.42
2023-04-07T17:39:11.173Z,33.80
2023-04-07T17:41:38.588Z,31.35
2023-04-07T17:44:05.836Z,36.00
2023-04-07T17:46:33.009Z,32.95
2023-04-07T17:49:00.250Z,29.83
2023-04-07T17:51:27.828Z,28.58
2023-04-07T17:53:55.145Z,24.90
2023-04-07T17:56:22.256Z,29.15
2023-04-07T17:58:49.392Z,24.85
2023-04-07T18:01:17.013Z,28.67
2023-04-07T18:03:44.681Z,32.10
2023-04-07T18:06:17.206Z,35.28
2023-04-07T18:08:48.224Z,38.22
2023-04-07T18:11:16.881Z,37.17
2023-04-07T18:13:43.899Z,31.20
2023-04-07T18:16:17.307Z,36.70
2023-04-07T18:18:46.464Z,36.47
2023-04-07T18:21:13.382Z,31.40
2023-04-07T18:23:40.332Z,28.85
2023-04-07T18:26:07.265Z,25.90
2023-04-07T18:28:35.383Z,24.73
2023-04-07T18:31:07.686Z,28.88
2023-04-07T18:33:36.508Z,26.88
2023-04-07T18:36:07.385Z,30.55
2023-04-07T18:38:38.230Z,24.40
2023-04-07T18:41:07.701Z,29.17
2023-04-07T18:43:35.095Z,26.95
2023-04-07T18:46:02.066Z,25.63
2023-04-07T18:48:29.104Z,27.88
2023-04-07T18:50:57.032Z,30.80
2023-04-07T18:53:27.850Z,40.22
2023-04-07T18:55:54.751Z,32.15
2023-04-07T18:58:21.941Z,30.73
2023-04-07T19:00:50.146Z,32.38
2023-04-07T19:03:17.543Z,36.78
2023-04-07T19:05:47.560Z,32.78
2023-04-07T19:08:16.303Z,26.35
2023-04-07T19:10:43.771Z,27.52
2023-04-07T19:13:11.224Z,30.70
2023-04-07T19:15:39.430Z,35.20
2023-04-07T19:18:08.360Z,34.45
2023-04-07T19:20:35.419Z,34.28
2023-04-07T19:23:02.628Z,31.50
2023-04-07T19:25:31.150Z,31.30
2023-04-07T19:27:59.464Z,47.08
2023-04-07T19:30:27.246Z,45.75
2023-04-07T19:32:54.216Z,56.35
2023-04-07T19:35:24.308Z,76.07
2023-04-07T19:37:52.608Z,86.57
2023-04-07T19:40:19.936Z,75.75
2023-04-07T19:42:47.115Z,56.97
2023-04-07T19:45:14.018Z,76.63
2023-04-07T19:47:44.563Z,74.55
2023-04-07T19:50:11.892Z,53.38
2023-04-07T19:52:39.317Z,45.08
2023-04-07T19:55:07.898Z,37.42
2023-04-07T19:57:35.992Z,40.22
2023-04-07T20:00:06.952Z,45.08
2023-04-07T20:02:34.046Z,51.60
2023-04-07T20:05:01.042Z,48.58
2023-04-07T20:07:27.969Z,45.90
2023-04-07T20:09:55.100Z,40.95
2023-04-07T20:12:22.005Z,40.88
2023-04-07T20:14:49.098Z,41.08
2023-04-07T20:17:16.133Z,40.35
2023-04-07T20:19:44.216Z,41.78
2023-04-07T20:22:11.505Z,42.95
2023-04-07T20:24:39.363Z,53.78
2023-04-07T20:27:06.511Z,64.75
2023-04-07T20:29:33.413Z,46.55
2023-04-07T20:32:00.395Z,42.40
2023-04-07T20:34:27.745Z,34.35
2023-04-07T20:36:55.836Z,36.65
2023-04-07T20:39:22.856Z,35.35
2023-04-07T20:41:49.780Z,33.63
2023-04-07T20:44:17.070Z,37.28
2023-04-07T20:46:46.514Z,37.70
2023-04-07T20:49:13.787Z,37.00
2023-04-07T20:51:42.277Z,31.83
2023-04-07T20:54:09.209Z,62.65
2023-04-07T20:56:36.802Z,54.17
2023-04-07T20:59:03.868Z,49.97
2023-04-07T21:01:30.916Z,40.53
2023-04-07T21:03:59.750Z,41.97
2023-04-07T21:06:26.747Z,37.92
2023-04-07T21:08:54.355Z,33.40
2023-04-07T21:11:21.769Z,34.58
2023-04-07T21:13:49.394Z,37.03
2023-04-07T21:16:17.099Z,34.90
2023-04-07T21:18:44.392Z,35.13
2023-04-07T21:21:11.304Z,32.97
2023-04-07T21:23:38.263Z,37.78
2023-04-07T21:26:05.326Z,31.33
2023-04-07T21:28:32.375Z,41.20
2023-04-07T21:30:59.587Z,38.20
2023-04-07T21:33:26.623Z,35.17
2023-04-07T21:35:55.159Z,34.42
2023-04-07T21:38:22.255Z,32.85
2023-04-07T21:40:49.258Z,33.97
2023-04-07T21:43:16.170Z,30.38
2023-04-07T21:45:43.115Z,32.95
2023-04-07T21:48:10.135Z,36.10
2023-04-07T21:50:38.032Z,32.92
2023-04-07T21:53:05.208Z,48.35
2023-04-07T21:55:32.105Z,50.65
2023-04-07T21:57:59.111Z,39.13
2023-04-07T22:00:26.123Z,38.90
2023-04-07T22:02:53.333Z,36.05
2023-04-07T22:05:21.140Z,40.58
2023-04-07T22:07:48.578Z,43.88
2023-04-07T22:10:15.819Z,42.40
2023-04-07T22:12:42.804Z,41.80
2023-04-07T22:15:11.635Z,46.88
2023-04-07T22:17:39.983Z,36.72
2023-04-07T22:20:12.690Z,38.22
2023-04-07T22:22:40.498Z,38.33
2023-04-07T22:25:07.946Z,38.15
2023-04-07T22:27:35.452Z,34.28
2023-04-07T22:30:04.934Z,29.48
2023-04-07T22:32:31.973Z,30.83
2023-04-07T22:34:58.857Z,31.88
2023-04-07T22:37:25.885Z,28.67
2023-04-07T22:39:52.877Z,32.00
2023-04-07T22:42:19.894Z,38.47
2023-04-07T22:44:46.904Z,37.40
2023-04-07T22:47:13.787Z,34.53
2023-04-07T22:49:40.862Z,35.67
2023-04-07T22:52:07.894Z,38.00
2023-04-07T22:54:34.875Z,30.88
2023-04-07T22:57:02.414Z,31.00
2023-04-07T22:59:29.422Z,33.58
2023-04-07T23:01:57.831Z,31.98
2023-04-07T23:04:25.158Z,29.92
2023-04-07T23:06:52.069Z,32.17
2023-04-07T23:09:19.321Z,34.35
2023-04-07T23:11:47.337Z,30.55
2023-04-07T23:14:14.891Z,29.50
2023-04-07T23:16:41.789Z,29.90
2023-04-07T23:19:11.839Z,32.75
2023-04-07T23:21:39.710Z,33.30
2023-04-07T23:24:06.695Z,28.10
2023-04-07T23:26:33.582Z,30.70
2023-04-07T23:29:00.748Z,30.90
2023-04-07T23:31:28.230Z,28.90
2023-04-07T23:33:55.404Z,33.45
2023-04-07T23:36:22.582Z,30.17
2023-04-07T23:38:49.643Z,33.67
2023-04-07T23:41:16.720Z,30.25
2023-04-07T23:43:43.799Z,30.45
2023-04-07T23:46:10.684Z,29.80
2023-04-07T23:48:37.564Z,30.50
2023-04-07T23:51:04.720Z,34.63
2023-04-07T23:53:31.694Z,36.50
2023-04-07T23:55:58.611Z,33.25
2023-04-07T23:58:25.597Z,37.80
